LEGM
43.26.15N 005.49.84W
IN73CK aprs.fi
zuletzt gehoert:
2021-12-02T06:00:05Z
zuerst gehoert:
2020-05-10T22:15:22Z

APRS Llanera [IN73CK], 0 Stunde(n), LEGM [07:29:20, 0s].
LEGM 43.26.15N 005.49.84WIN73CK 0.470km 286°WNW06:00:05ZHelipuerto de La Morgal: LEAS 020500Z VRB05KT 9999 FEW032 SCT038 BKN046 10/05 Q1017 NOSIG=
LEMR 43.25.83N 005.49.60WIN73CK 0.502km 196°SSW06:00:06ZAerodromo de la Morgal: LEAS 020500Z VRB05KT 9999 FEW032 SCT038 BKN046 10/05 Q1017 NOSIG=
EA1ABW 43.24.77N 005.47.77WIN73CJ 3.358km 136°SE06:00:30ZMMDVM MMDVM HS Hat 439.8250/439.8250 CC1
EA1IPU 43.26.21N 005.46.62WIN73CK 3.888km 86°E06:00:28ZMMDVM MMDVM HS Hat 439.8000/439.8000 CC1
LEHU 43.22.63N 005.49.57WIN73CJ 6.412km 181°S06:00:05ZHelipuerto del HUCA: LEAS 020500Z VRB05KT 9999 FEW032 SCT038 BKN046 10/05 Q1017 NOSIG=
ED1ZAU 43.23.04N 005.52.75WIN73BJ 7.152km 218°SW06:03:40ZRD625 438.5000/430.9000 CC1
EA1YR 43.22.09N 005.51.86WIN73BI 8.050km 203°SSW06:03:22ZMMDVM DVS 434.3500/434.3500 CC1
33D00 43.21.63N 005.51.13WIN73BI 8.549km 195°SSW06:02:43Z33-D-00 Protección Civil REMER / Delegación del Gobierno en Asturias
EA1L 43.20.37N 005.51.13WIN73BI 10.805km 192°SSW06:21:39Zea1l@ure.es V=13.6V,T=??.?C
Wind 233°/000kn, Böen bis 003kn, Temp 9.44c, Regen 0.8mm, letzte 24h 23.1mm, seit 0h 23.1mm, Baro 1015.6h, Hum: 0%(2EA1L-13)
ED1ZAY 43.29.47N 005.56.54WIN73AL 11.369km 304°NW06:03:41ZRD625 438.3000/430.7000 CC1
ED1ZAE 43.27.99N 005.40.54WIN73DL 12.549km 74°ENE06:18:34Z2m Voice 145.5875 -0.600 Mhz(3ED1ZAE-C)
400 M. PICO SAN MARTIN (GIJON) 13.3V,9.0C(2ED1ZAE-3)
ED1ZAS 43.27.52N 005.40.17WIN73DL 12.824km 78°ENE06:03:41ZRD985 438.2250/430.6250 CC1
EA1AHA 43.32.72N 005.54.38WIN73BN 13.941km 332°NNW06:26:29ZWind 000°/011kn, Böen bis 014kn, Temp 11.67c, Regen 0.0mm, letzte 24h 0.0mm, seit 0h 0.0mm, Baro 1018.9h, Hum: 58%(3EA1AHA-13)
EB1TK 43.32.22N 005.42.32WIN73DM 14.924km 40°NE06:27:18ZWind 336°/008kn, Böen bis 014kn, Temp 9.44c, Regen 0.3mm, letzte 24h 16.5mm, seit 0h 16.5mm, Baro 1020.0h, Hum: 76%(3EB1TK-13)
EA1FFA 43.31.53N 005.40.64WIN73DM 15.621km 50°NE06:02:31ZMMDVM MMDVM HS Hat 438.8000/438.8000 CC1
EA1DZR 43.31.48N 005.40.00WIN73EM 16.218km 52°NE06:02:59ZMMDVM DVS 434.3500/434.3500 CC1
LEEL 43.32.98N 005.41.71WIN73DN 16.507km 39°NE06:00:06ZHelipuerto de El Musel: LEAS 020500Z VRB05KT 9999 FEW032 SCT038 BKN046 10/05 Q1017 NOSIG=
EA1DHE 43.33.98N 005.58.57WIN73AN 19.046km 320°NW06:03:11ZMMDVM DVS 434.3500/434.3500 CC1
EA1FLQ 43.22.00N 005.36.35WIN73EI 19.250km 113°ESE06:00:53ZMMDVM DVMega 439.9750/439.9750 CC1
EB1GEM 43.30.00N 005.36.07WIN73EM 19.472km 68°ENE06:13:59ZWX3in1Plus2.0 U=13.3V,T=??.?C/??.?F(3EB1GEM-3)
EA1IMW 43.14.36N 005.46.93WIN73CF 22.010km 171°S06:03:04ZGRUPO RADIO GALENA (GRG) 433.4500/433.4500 CC1
EB1DGC 43.12.60N 005.45.59WIN73CF 25.544km 168°SSE06:01:34ZMMDVM MMDVM HS Hat 433.4500/433.4500 CC1
EA1JBL 43.12.28N 005.47.42WIN73CE 25.723km 174°S06:02:50ZMMDVM DVMega 435.3000/435.3000 CC1
EA1HJA 43.28.10N 005.30.45WIN73FL 25.900km 82°E06:24:20ZEA1HJA@URE.ES
IN73FL WX3IN1+ 2.0 - V=13.2V,TX TEMP=22.5C(2EA1HJA-2)
EA1HWA 43.12.00N 005.47.40WIN73CE 26.262km 174°S06:02:25ZMMDVM MMDVM HS Hat 433.4500/433.4500 CC1
EA1RCG 43.09.45N 005.49.78WIN73CD 30.817km 181°S06:02:59ZGRUPO RADIO GALENA (GRG) 433.4500/433.4500 CC1
EA1JAY 43.29.33N 005.26.78WIN73GL 31.150km 79°E06:16:31Z434.525MHz Nodo TETRA DMO(3EA1JAY-4)
EA1JAY(2EA1JAY-2)
EA1FHR 43.28.72N 005.26.41WIN73GL 31.429km 81°E06:00:52ZMMDVM MMDVM HS Hat 439.1500/439.1500 CC1
EA1HWD 43.28.96N 005.26.30WIN73GL 31.659km 80°E06:01:34Z144.575FM Local frecuency VHF. 434.2500/434.2500 CC1
ED1ZAD 43.07.90N 005.38.52WIN73ED 36.796km 156°SSE06:25:21ZED1ZAD-3 APRS Digi/Igate(3ED1ZAD-3)
EC1KV 43.34.01N 006.16.01WIN63UN 38.530km 293°WNW06:18:03ZALBUERNE(3EC1KV-1)
EA1JBU 43.30.80N 005.16.20WIN73IM 45.612km 79°E05:31:43ZEA1JBU(3EA1JBU-2)
EA1JBE 43.30.90N 005.16.15WIN73IM 45.726km 79°E06:24:47ZMAIN QTH http://qrz.com/db/ea1jbe(3EA1JBE-1)
MAIN QTH http://qrz.com/db/ea1jbe(2EA1JBE-13)
LETN 43.20.05N 006.22.69WIN63TI 46.083km 256°WSW06:00:05ZAerodromo de La Curiscada (Tineo): LEAS 020500Z VRB05KT 9999 FEW032 SCT038 BKN046 10/05 Q1017 NOSIG=

aprs.pl 5.0.011w DL3EL © 2006-2021 [1171903]